VABB Airport Information

Runway Information
Runway 09 Length 11302 ft width 148 ft
Elevation 15 ft Threshold 465 ft Heading 89
Runway 27 Length 11302 ft Width 148 ft
Elevation 22 ft Threshold 1581 ft Heading 269
Runway 14 Length 9596 ft width 150 ft
Elevation 37 ft Threshold 1238 ft Heading 134
Runway 32 Length 9596 ft Width 150 ft
Elevation 26 ft Threshold 853 ft Heading 314
Airport Frequencies
Type ACC Name MUMBAI Frequency 120.5 MHZ
Type APP Name MUMBAI APP Frequency 127.9 MHZ
Type ATIS Name MUMBAI ATI Frequency 126.4 MHZ
Type CLD Name MUMBAI CLR Frequency 121.85 MHZ
Type GND Name MUMBAI GND Frequency 121.9 MHZ
Type RDO Name MUMBAI RDO Frequency 1008.4 MHZ
Type RDR Name RDR Frequency 119.3 MHZ
Type TWR Name MUMBAI TWR Frequency 118.1 MHZ
Airport Navaids
Type VOR-DME Name Mumbai Frequency 116600 KHZ
Airport Weather Information & NOTAM
ADDS - METARS form results

(0839 UTC 23 April 2019)
Data provider http://aviationweather.gov/metar/data/
 
METAR text: VABB 230830Z 27013KT 6000 NSC 33/26 Q1008 NOSIG
Conditions at: VABB (BOMBAY/SANTACRUZ, IN) observed 0830 UTC 23 April 2019
Temperature: 33.0°C (91°F)
Dewpoint: 26.0°C (79°F) [RH = 67%]
Pressure (altimeter): 29.76 inches Hg (1008.0 mb)
Winds: from the W (270 degrees) at 15 MPH (13 knots; 6.7 m/s)
Visibility: 4 miles ( 6 km)
Ceiling: at least 12,000 feet AGL
Clouds: sky clear below 12,000 feet AGL
Weather: no significant weather observed at this time

METAR text: VABB 230800Z 26014KT 6000 NSC 34/26 Q1008 NOSIG
Conditions at: VABB (BOMBAY/SANTACRUZ, IN) observed 0800 UTC 23 April 2019
Temperature: 34.0°C (93°F)
Dewpoint: 26.0°C (79°F) [RH = 63%]
Pressure (altimeter): 29.76 inches Hg (1008.0 mb)
Winds: from the W (260 degrees) at 16 MPH (14 knots; 7.2 m/s)
Visibility: 4 miles ( 6 km)
Ceiling: at least 12,000 feet AGL
Clouds: sky clear below 12,000 feet AGL
Weather: no significant weather observed at this time

Forecast for: VABB (BOMBAY/SANTACRUZ, IN)
Text: TAF VABB 230800Z 2309/2318 26012KT 5000 FU NSC
Forecast period: 0900 to 1400 UTC 23 April 2019
Forecast type: FROM: standard forecast or significant change
Winds: from the W (260 degrees) at 14 MPH (12 knots; 6.2 m/s)
Visibility: 3 miles (5 km)
Ceiling: unknown
Clouds: missing
Weather: FU  (smoke)
Text: BECMG 2314/2316 23006KT 4000 HZ FU NSC
Forecast period: 1400 to 1800 UTC 23 April 2019
Forecast type: BECOMING: Conditions expected to become as follows by 1600 UTC 23 April 2019
Winds: from the SW (230 degrees) at 7 MPH (6 knots; 3.1 m/s)
Visibility: 2.49 miles (4.01 km)
Ceiling: unknown
Clouds: missing
Weather: HZ FU  (haze, smoke)